»·PEaware :: N180D KBUR-KPSP

N180D :: KBUR-KPSP

FLIGHT INFORMATION

Flight Status: Arrived
Operator: Privately registered:
United States
More flights under this callsign
Pilot: Augie L. (30054)
Aircraft: CESSNA 172 SKYHAWK
(C172)
More flights by this aircraft type
Origin: KBUR Bob Hope-Burbank
United States
Destination: KPSP Palm Springs Intl
United States
More flights between these airports :: More routes between these airports
Route: POM
File this flight plan on PilotEdge
Remarks:
Altitude:
(Current/Filed)
7,500ft
Speed:
(Current/Filed)
110kts
Departed: 21-Nov-20 01:36 PM
Arrived: 21-Nov-20 02:25 PM
Distance/Time
Traveled:
95nm/0:49
Distance/Time
To Go:
Arrived

Flight Plot

Page will automatically refresh every two minutes.

Flight plan parsing failed; only flown route is shown


Map Options




Map Legend


Flown Route
Filed Route
Departure Airport
Arrival Airport
Navaid (VOR, NDB)
Fix

Horizontal Profiles

Position Reports

Time Latitude Longitude Heading Altitude Ground
Speed
21-Nov-20 13:16 34.200211 -118.358869 280 720ft 0kts
21-Nov-20 13:17 34.200211 -118.358869 280 720ft 0kts
21-Nov-20 13:18 34.200211 -118.358869 280 720ft 0kts
21-Nov-20 13:20 34.200211 -118.358869 280 720ft 0kts
21-Nov-20 13:21 34.200211 -118.358869 280 720ft 0kts
21-Nov-20 13:22 34.200211 -118.358869 280 720ft 0kts
21-Nov-20 13:23 34.200211 -118.358869 280 720ft 0kts
21-Nov-20 13:24 34.200211 -118.358871 280 720ft 0kts
21-Nov-20 13:25 34.201707 -118.359001 66 726ft 9kts
21-Nov-20 13:26 34.204390 -118.359416 347 736ft 17kts
21-Nov-20 13:27 34.210243 -118.361041 347 764ft 16kts
21-Nov-20 13:28 34.211819 -118.361311 124 767ft 0kts
21-Nov-20 13:29 34.211819 -118.361311 124 767ft 0kts
21-Nov-20 13:30 34.211819 -118.361311 124 767ft 0kts
21-Nov-20 13:31 34.211819 -118.361311 124 767ft 0kts
21-Nov-20 13:32 34.211819 -118.361311 124 767ft 0kts
21-Nov-20 13:33 34.211819 -118.361311 124 767ft 0kts
21-Nov-20 13:34 34.211635 -118.360325 157 765ft 18kts
21-Nov-20 13:35 34.195017 -118.354900 156 1433ft 72kts
21-Nov-20 13:36 34.179847 -118.339743 96 2393ft 79kts
21-Nov-20 13:37 34.176282 -118.315071 97 3392ft 72kts
21-Nov-20 13:38 34.173689 -118.285525 72 4143ft 94kts
21-Nov-20 13:39 34.176388 -118.251509 96 4970ft 110kts
21-Nov-20 13:40 34.169842 -118.214564 103 5773ft 115kts
21-Nov-20 13:41 34.161933 -118.177030 105 6570ft 115kts
21-Nov-20 13:42 34.153275 -118.136516 106 7167ft 121kts
21-Nov-20 13:43 34.144242 -118.094434 106 7460ft 144kts
21-Nov-20 13:44 34.134281 -118.047967 107 7451ft 134kts
21-Nov-20 13:45 34.125154 -118.005546 108 7458ft 128kts
21-Nov-20 13:46 34.116194 -117.963986 109 7527ft 131kts
21-Nov-20 13:47 34.106940 -117.921086 109 7529ft 132kts
21-Nov-20 13:48 34.097641 -117.878082 109 7533ft 134kts
21-Nov-20 13:49 34.088189 -117.834434 110 7535ft 133kts
21-Nov-20 13:50 34.078801 -117.791468 110 7533ft 131kts
21-Nov-20 13:51 34.070293 -117.748960 102 7519ft 132kts
21-Nov-20 13:52 34.061840 -117.704982 99 7531ft 137kts
21-Nov-20 13:53 34.053264 -117.659715 100 7528ft 139kts
21-Nov-20 13:54 34.044580 -117.614201 101 7527ft 139kts
21-Nov-20 13:55 34.035819 -117.568477 101 7527ft 140kts
21-Nov-20 13:56 34.027009 -117.522560 101 7527ft 140kts
21-Nov-20 13:57 34.018195 -117.476697 102 7528ft 140kts
21-Nov-20 13:58 34.009359 -117.430805 102 7528ft 141kts
21-Nov-20 13:59 34.000483 -117.384808 102 7528ft 141kts
21-Nov-20 14:00 33.991562 -117.338699 103 7526ft 141kts
21-Nov-20 14:01 33.982636 -117.292696 103 7527ft 141kts
21-Nov-20 14:03 33.975078 -117.253790 103 7529ft 141kts
21-Nov-20 14:04 33.966128 -117.207802 103 7531ft 141kts
21-Nov-20 14:05 33.957147 -117.161752 103 7533ft 141kts
21-Nov-20 14:06 33.948507 -117.115565 95 7534ft 141kts
21-Nov-20 14:07 33.944506 -117.068410 96 7533ft 141kts
21-Nov-20 14:08 33.940896 -117.021260 96 7530ft 141kts
21-Nov-20 14:09 33.937741 -116.974113 95 7526ft 141kts
21-Nov-20 14:10 33.935447 -116.927165 95 7523ft 140kts
21-Nov-20 14:11 33.933430 -116.880583 95 7519ft 138kts
21-Nov-20 14:12 33.931289 -116.834196 95 7520ft 138kts
21-Nov-20 14:13 33.928881 -116.784565 95 7054ft 152kts
21-Nov-20 14:14 33.926875 -116.733347 95 6552ft 152kts
21-Nov-20 14:15 33.924662 -116.683008 98 6016ft 142kts
21-Nov-20 14:16 33.920950 -116.637187 100 4809ft 136kts
21-Nov-20 14:17 33.918063 -116.596114 96 3895ft 113kts
21-Nov-20 14:17 33.916507 -116.564572 97 3066ft 117kts
21-Nov-20 14:19 33.909211 -116.524734 143 2284ft 97kts
21-Nov-20 14:19 33.886797 -116.517574 167 1822ft 98kts
21-Nov-20 14:20 33.862327 -116.512078 170 1464ft 84kts
21-Nov-20 14:22 33.835721 -116.495533 146 1371ft 102kts
21-Nov-20 14:22 33.818557 -116.483082 171 1302ft 68kts
21-Nov-20 14:24 33.825542 -116.503974 324 420ft 71kts
21-Nov-20 14:24 33.832890 -116.510533 320 435ft 16kts
21-Nov-20 14:26 33.833017 -116.511786 219 438ft 0kts
21-Nov-20 14:26 33.832961 -116.511843 222 438ft 0kts
21-Nov-20 14:27 33.831760 -116.511638 143 433ft 11kts
21-Nov-20 14:28 33.828740 -116.508922 140 425ft 16kts
21-Nov-20 14:29 33.825715 -116.507127 198 415ft 7kts
21-Nov-20 14:30 33.825588 -116.508168 82 417ft 8kts
21-Nov-20 14:31 33.825958 -116.507864 268 417ft 0kts

Navigation Log

Ident Type
Flight plan parsing failed, navigation log unavailable